sensor_id;sensor_type;location;lat;lon;timestamp;P1;durP1;ratioP1;P2;durP2;ratioP2
73919;SDS011;62266;53.348;-1.496;2023-05-29T00:07:45;11.30;;;3.20;;
73919;SDS011;62266;53.348;-1.496;2023-05-29T00:10:29;10.57;;;3.60;;
73919;SDS011;62266;53.348;-1.496;2023-05-29T00:26:58;10.87;;;3.50;;
73919;SDS011;62266;53.348;-1.496;2023-05-29T01:10:25;10.70;;;3.63;;
73919;SDS011;62266;53.348;-1.496;2023-05-29T01:13:09;11.57;;;3.20;;
73919;SDS011;62266;53.348;-1.496;2023-05-29T05:20:55;16.40;;;3.87;;
73919;SDS011;62266;53.348;-1.496;2023-05-29T05:31:45;10.50;;;3.70;;
73919;SDS011;62266;53.348;-1.496;2023-05-29T06:39:25;7.53;;;1.75;;
73919;SDS011;62266;53.348;-1.496;2023-05-29T06:44:51;6.88;;;2.03;;
73919;SDS011;62266;53.348;-1.496;2023-05-29T06:47:39;7.83;;;2.20;;
73919;SDS011;62266;53.348;-1.496;2023-05-29T06:50:30;8.20;;;2.13;;
73919;SDS011;62266;53.348;-1.496;2023-05-29T06:53:26;6.45;;;1.98;;
73919;SDS011;62266;53.348;-1.496;2023-05-29T06:56:11;6.68;;;2.20;;
73919;SDS011;62266;53.348;-1.496;2023-05-29T06:59:01;8.18;;;2.38;;
73919;SDS011;62266;53.348;-1.496;2023-05-29T07:01:45;5.87;;;2.20;;
73919;SDS011;62266;53.348;-1.496;2023-05-29T07:04:32;6.10;;;1.77;;
73919;SDS011;62266;53.348;-1.496;2023-05-29T07:07:16;7.70;;;1.95;;
73919;SDS011;62266;53.348;-1.496;2023-05-29T07:10:01;7.10;;;1.67;;
73919;SDS011;62266;53.348;-1.496;2023-05-29T07:12:49;9.55;;;1.90;;
73919;SDS011;62266;53.348;-1.496;2023-05-29T07:15:38;9.43;;;2.00;;
73919;SDS011;62266;53.348;-1.496;2023-05-29T07:21:16;6.53;;;1.70;;
73919;SDS011;62266;53.348;-1.496;2023-05-29T07:24:04;7.85;;;1.83;;
73919;SDS011;62266;53.348;-1.496;2023-05-29T07:26:52;9.90;;;1.92;;
73919;SDS011;62266;53.348;-1.496;2023-05-29T07:32:27;7.00;;;2.00;;
73919;SDS011;62266;53.348;-1.496;2023-05-29T07:35:11;6.55;;;2.45;;
73919;SDS011;62266;53.348;-1.496;2023-05-29T07:37:56;6.68;;;2.08;;
73919;SDS011;62266;53.348;-1.496;2023-05-29T07:40:40;3.63;;;1.65;;
73919;SDS011;62266;53.348;-1.496;2023-05-29T07:46:54;8.45;;;1.70;;
73919;SDS011;62266;53.348;-1.496;2023-05-29T07:49:39;6.55;;;1.88;;
73919;SDS011;62266;53.348;-1.496;2023-05-29T07:52:24;6.90;;;2.00;;
73919;SDS011;62266;53.348;-1.496;2023-05-29T07:55:08;6.05;;;1.80;;
73919;SDS011;62266;53.348;-1.496;2023-05-29T07:57:52;7.33;;;1.70;;
73919;SDS011;62266;53.348;-1.496;2023-05-29T08:00:39;6.45;;;1.60;;
73919;SDS011;62266;53.348;-1.496;2023-05-29T08:03:23;6.68;;;1.50;;
73919;SDS011;62266;53.348;-1.496;2023-05-29T08:06:07;7.45;;;1.90;;
73919;SDS011;62266;53.348;-1.496;2023-05-29T08:08:51;10.45;;;1.85;;
73919;SDS011;62266;53.348;-1.496;2023-05-29T08:11:38;8.83;;;1.73;;
73919;SDS011;62266;53.348;-1.496;2023-05-29T08:14:30;5.07;;;1.20;;
73919;SDS011;62266;53.348;-1.496;2023-05-29T08:19:47;5.88;;;1.70;;
73919;SDS011;62266;53.348;-1.496;2023-05-29T08:22:32;7.22;;;1.58;;
73919;SDS011;62266;53.348;-1.496;2023-05-29T08:25:17;6.03;;;1.40;;
73919;SDS011;62266;53.348;-1.496;2023-05-29T08:28:02;5.80;;;1.35;;
73919;SDS011;62266;53.348;-1.496;2023-05-29T08:33:40;7.40;;;1.80;;
73919;SDS011;62266;53.348;-1.496;2023-05-29T08:36:26;6.40;;;2.17;;
73919;SDS011;62266;53.348;-1.496;2023-05-29T08:44:40;6.72;;;1.65;;
73919;SDS011;62266;53.348;-1.496;2023-05-29T08:47:25;8.68;;;1.70;;
73919;SDS011;62266;53.348;-1.496;2023-05-29T08:50:12;5.97;;;1.70;;
73919;SDS011;62266;53.348;-1.496;2023-05-29T08:52:57;7.57;;;1.97;;
73919;SDS011;62266;53.348;-1.496;2023-05-29T08:58:29;7.63;;;1.83;;
73919;SDS011;62266;53.348;-1.496;2023-05-29T09:01:14;6.15;;;2.00;;
73919;SDS011;62266;53.348;-1.496;2023-05-29T09:03:59;5.78;;;1.73;;
73919;SDS011;62266;53.348;-1.496;2023-05-29T09:06:48;5.13;;;1.70;;
73919;SDS011;62266;53.348;-1.496;2023-05-29T09:09:38;6.28;;;1.80;;
73919;SDS011;62266;53.348;-1.496;2023-05-29T09:12:24;4.38;;;2.03;;
73919;SDS011;62266;53.348;-1.496;2023-05-29T09:18:04;8.65;;;2.47;;
73919;SDS011;62266;53.348;-1.496;2023-05-29T09:20:49;6.17;;;1.80;;
73919;SDS011;62266;53.348;-1.496;2023-05-29T09:23:33;5.85;;;2.00;;
73919;SDS011;62266;53.348;-1.496;2023-05-29T09:34:25;3.53;;;1.33;;
73919;SDS011;62266;53.348;-1.496;2023-05-29T09:37:12;7.72;;;1.95;;
73919;SDS011;62266;53.348;-1.496;2023-05-29T09:39:58;6.82;;;1.70;;
73919;SDS011;62266;53.348;-1.496;2023-05-29T09:42:46;6.00;;;1.70;;
73919;SDS011;62266;53.348;-1.496;2023-05-29T09:45:30;5.88;;;1.85;;
73919;SDS011;62266;53.348;-1.496;2023-05-29T09:50:57;5.80;;;1.73;;
73919;SDS011;62266;53.348;-1.496;2023-05-29T09:53:46;6.35;;;2.00;;
73919;SDS011;62266;53.348;-1.496;2023-05-29T09:56:30;6.05;;;1.77;;
73919;SDS011;62266;53.348;-1.496;2023-05-29T09:59:17;8.48;;;1.50;;
73919;SDS011;62266;53.348;-1.496;2023-05-29T10:04:54;6.82;;;1.92;;
73919;SDS011;62266;53.348;-1.496;2023-05-29T10:10:20;7.80;;;1.88;;
73919;SDS011;62266;53.348;-1.496;2023-05-29T10:13:05;6.03;;;1.70;;
73919;SDS011;62266;53.348;-1.496;2023-05-29T10:15:47;5.23;;;1.90;;
73919;SDS011;62266;53.348;-1.496;2023-05-29T10:24:04;4.50;;;1.50;;
73919;SDS011;62266;53.348;-1.496;2023-05-29T10:27:02;8.45;;;1.70;;
73919;SDS011;62266;53.348;-1.496;2023-05-29T10:29:50;5.07;;;1.80;;
73919;SDS011;62266;53.348;-1.496;2023-05-29T10:38:41;7.03;;;2.00;;
73919;SDS011;62266;53.348;-1.496;2023-05-29T10:49:31;6.50;;;2.25;;
73919;SDS011;62266;53.348;-1.496;2023-05-29T10:52:18;8.27;;;1.88;;
73919;SDS011;62266;53.348;-1.496;2023-05-29T10:57:52;5.40;;;1.67;;
73919;SDS011;62266;53.348;-1.496;2023-05-29T11:03:19;6.65;;;2.00;;
73919;SDS011;62266;53.348;-1.496;2023-05-29T11:19:33;5.53;;;1.67;;
73919;SDS011;62266;53.348;-1.496;2023-05-29T11:24:59;5.43;;;1.80;;
73919;SDS011;62266;53.348;-1.496;2023-05-29T11:30:26;4.80;;;1.65;;
73919;SDS011;62266;53.348;-1.496;2023-05-29T11:33:07;5.22;;;1.92;;
73919;SDS011;62266;53.348;-1.496;2023-05-29T11:35:55;6.70;;;2.08;;
73919;SDS011;62266;53.348;-1.496;2023-05-29T11:38:41;5.83;;;1.80;;
73919;SDS011;62266;53.348;-1.496;2023-05-29T11:41:26;5.47;;;2.00;;
73919;SDS011;62266;53.348;-1.496;2023-05-29T11:52:20;6.13;;;1.77;;
73919;SDS011;62266;53.348;-1.496;2023-05-29T12:03:13;6.40;;;1.75;;
73919;SDS011;62266;53.348;-1.496;2023-05-29T12:05:59;6.63;;;1.90;;
73919;SDS011;62266;53.348;-1.496;2023-05-29T12:08:40;3.83;;;1.63;;
73919;SDS011;62266;53.348;-1.496;2023-05-29T12:22:05;4.75;;;1.58;;
73919;SDS011;62266;53.348;-1.496;2023-05-29T12:24:50;4.45;;;1.80;;
73919;SDS011;62266;53.348;-1.496;2023-05-29T12:30:29;8.73;;;1.90;;
73919;SDS011;62266;53.348;-1.496;2023-05-29T12:46:43;5.17;;;1.70;;
73919;SDS011;62266;53.348;-1.496;2023-05-29T12:52:15;4.63;;;1.45;;
73919;SDS011;62266;53.348;-1.496;2023-05-29T12:54:56;3.58;;;1.35;;
73919;SDS011;62266;53.348;-1.496;2023-05-29T13:00:16;5.23;;;1.77;;
73919;SDS011;62266;53.348;-1.496;2023-05-29T13:24:46;5.35;;;1.70;;
73919;SDS011;62266;53.348;-1.496;2023-05-29T14:05:27;4.93;;;1.70;;
73919;SDS011;62266;53.348;-1.496;2023-05-29T14:08:09;4.80;;;1.50;;
73919;SDS011;62266;53.348;-1.496;2023-05-29T14:16:10;3.30;;;1.52;;
73919;SDS011;62266;53.348;-1.496;2023-05-29T14:18:54;3.95;;;1.60;;
73919;SDS011;62266;53.348;-1.496;2023-05-29T14:21:39;6.47;;;1.90;;
73919;SDS011;62266;53.348;-1.496;2023-05-29T14:24:23;6.30;;;1.60;;
73919;SDS011;62266;53.348;-1.496;2023-05-29T14:29:56;6.70;;;1.70;;
73919;SDS011;62266;53.348;-1.496;2023-05-29T14:32:43;7.00;;;1.75;;
73919;SDS011;62266;53.348;-1.496;2023-05-29T14:38:10;5.80;;;1.52;;
73919;SDS011;62266;53.348;-1.496;2023-05-29T14:40:54;6.95;;;2.10;;
73919;SDS011;62266;53.348;-1.496;2023-05-29T14:43:49;6.82;;;1.75;;
73919;SDS011;62266;53.348;-1.496;2023-05-29T14:46:35;5.30;;;1.80;;
73919;SDS011;62266;53.348;-1.496;2023-05-29T14:49:20;5.13;;;1.67;;
73919;SDS011;62266;53.348;-1.496;2023-05-29T14:52:05;9.15;;;1.75;;
73919;SDS011;62266;53.348;-1.496;2023-05-29T14:54:43;6.15;;;2.08;;
73919;SDS011;62266;53.348;-1.496;2023-05-29T15:00:04;7.18;;;1.85;;
73919;SDS011;62266;53.348;-1.496;2023-05-29T15:05:40;5.45;;;1.60;;
73919;SDS011;62266;53.348;-1.496;2023-05-29T15:08:24;8.88;;;1.88;;
73919;SDS011;62266;53.348;-1.496;2023-05-29T15:11:12;4.22;;;1.52;;
73919;SDS011;62266;53.348;-1.496;2023-05-29T15:13:59;5.45;;;2.10;;
73919;SDS011;62266;53.348;-1.496;2023-05-29T15:16:44;5.80;;;1.40;;
73919;SDS011;62266;53.348;-1.496;2023-05-29T15:19:29;4.40;;;1.80;;
73919;SDS011;62266;53.348;-1.496;2023-05-29T15:22:14;6.13;;;1.73;;
73919;SDS011;62266;53.348;-1.496;2023-05-29T15:24:58;6.10;;;1.58;;
73919;SDS011;62266;53.348;-1.496;2023-05-29T15:27:45;5.00;;;1.83;;
73919;SDS011;62266;53.348;-1.496;2023-05-29T15:35:49;5.40;;;2.10;;
73919;SDS011;62266;53.348;-1.496;2023-05-29T15:38:33;4.80;;;1.70;;
73919;SDS011;62266;53.348;-1.496;2023-05-29T15:44:09;9.40;;;2.03;;
73919;SDS011;62266;53.348;-1.496;2023-05-29T15:46:56;8.57;;;2.05;;
73919;SDS011;62266;53.348;-1.496;2023-05-29T15:55:05;5.05;;;2.03;;
73919;SDS011;62266;53.348;-1.496;2023-05-29T15:57:54;6.23;;;2.10;;
73919;SDS011;62266;53.348;-1.496;2023-05-29T16:03:26;5.40;;;1.75;;
73919;SDS011;62266;53.348;-1.496;2023-05-29T16:06:12;3.85;;;1.80;;
73919;SDS011;62266;53.348;-1.496;2023-05-29T16:25:03;4.53;;;1.63;;
73919;SDS011;62266;53.348;-1.496;2023-05-29T16:30:39;5.90;;;1.77;;
73919;SDS011;62266;53.348;-1.496;2023-05-29T16:44:14;6.07;;;2.05;;
73919;SDS011;62266;53.348;-1.496;2023-05-29T16:52:27;9.53;;;2.37;;
73919;SDS011;62266;53.348;-1.496;2023-05-29T16:55:17;6.95;;;2.10;;
73919;SDS011;62266;53.348;-1.496;2023-05-29T16:58:01;5.30;;;2.17;;
73919;SDS011;62266;53.348;-1.496;2023-05-29T17:06:10;6.13;;;1.93;;
73919;SDS011;62266;53.348;-1.496;2023-05-29T17:08:47;6.13;;;2.10;;
73919;SDS011;62266;53.348;-1.496;2023-05-29T17:14:08;5.03;;;2.30;;
73919;SDS011;62266;53.348;-1.496;2023-05-29T17:16:52;7.10;;;2.20;;
73919;SDS011;62266;53.348;-1.496;2023-05-29T17:22:15;7.72;;;2.22;;
73919;SDS011;62266;53.348;-1.496;2023-05-29T17:25:06;8.43;;;2.10;;
73919;SDS011;62266;53.348;-1.496;2023-05-29T17:30:41;8.25;;;1.85;;
73919;SDS011;62266;53.348;-1.496;2023-05-29T17:33:26;9.67;;;1.83;;
73919;SDS011;62266;53.348;-1.496;2023-05-29T17:36:10;8.88;;;2.10;;
73919;SDS011;62266;53.348;-1.496;2023-05-29T17:38:55;9.43;;;2.13;;
73919;SDS011;62266;53.348;-1.496;2023-05-29T17:44:20;9.10;;;2.28;;
73919;SDS011;62266;53.348;-1.496;2023-05-29T17:47:04;7.50;;;1.90;;
73919;SDS011;62266;53.348;-1.496;2023-05-29T17:49:52;4.97;;;1.88;;
73919;SDS011;62266;53.348;-1.496;2023-05-29T17:52:36;9.73;;;1.95;;
73919;SDS011;62266;53.348;-1.496;2023-05-29T17:55:21;8.52;;;1.85;;
73919;SDS011;62266;53.348;-1.496;2023-05-29T17:58:07;7.13;;;2.20;;
73919;SDS011;62266;53.348;-1.496;2023-05-29T18:00:52;11.73;;;2.90;;
73919;SDS011;62266;53.348;-1.496;2023-05-29T18:09:08;8.60;;;2.40;;
73919;SDS011;62266;53.348;-1.496;2023-05-29T18:11:53;12.05;;;2.20;;
73919;SDS011;62266;53.348;-1.496;2023-05-29T18:14:50;6.53;;;1.90;;
73919;SDS011;62266;53.348;-1.496;2023-05-29T18:17:34;8.52;;;2.20;;
73919;SDS011;62266;53.348;-1.496;2023-05-29T18:20:19;6.22;;;2.20;;
73919;SDS011;62266;53.348;-1.496;2023-05-29T18:23:04;9.52;;;2.10;;
73919;SDS011;62266;53.348;-1.496;2023-05-29T18:34:07;8.18;;;2.03;;
73919;SDS011;62266;53.348;-1.496;2023-05-29T18:36:54;8.05;;;1.88;;
73919;SDS011;62266;53.348;-1.496;2023-05-29T18:39:38;8.10;;;2.33;;
73919;SDS011;62266;53.348;-1.496;2023-05-29T18:45:07;8.90;;;1.90;;
73919;SDS011;62266;53.348;-1.496;2023-05-29T18:53:21;8.55;;;2.25;;
73919;SDS011;62266;53.348;-1.496;2023-05-29T18:56:09;8.30;;;2.10;;
73919;SDS011;62266;53.348;-1.496;2023-05-29T18:58:55;9.30;;;2.60;;
73919;SDS011;62266;53.348;-1.496;2023-05-29T19:04:25;11.60;;;2.47;;
73919;SDS011;62266;53.348;-1.496;2023-05-29T19:07:09;8.70;;;2.00;;
73919;SDS011;62266;53.348;-1.496;2023-05-29T19:09:53;6.80;;;2.17;;
73919;SDS011;62266;53.348;-1.496;2023-05-29T19:12:37;9.55;;;2.25;;
73919;SDS011;62266;53.348;-1.496;2023-05-29T19:15:21;8.50;;;2.08;;
73919;SDS011;62266;53.348;-1.496;2023-05-29T19:18:08;8.98;;;2.25;;
73919;SDS011;62266;53.348;-1.496;2023-05-29T19:20:53;9.95;;;2.05;;
73919;SDS011;62266;53.348;-1.496;2023-05-29T19:23:37;8.47;;;2.07;;
73919;SDS011;62266;53.348;-1.496;2023-05-29T19:26:22;7.80;;;2.30;;
73919;SDS011;62266;53.348;-1.496;2023-05-29T19:29:06;8.00;;;2.95;;
73919;SDS011;62266;53.348;-1.496;2023-05-29T19:34:36;11.20;;;2.60;;
73919;SDS011;62266;53.348;-1.496;2023-05-29T19:37:23;9.83;;;2.60;;
73919;SDS011;62266;53.348;-1.496;2023-05-29T19:40:07;10.65;;;3.50;;
73919;SDS011;62266;53.348;-1.496;2023-05-29T19:42:52;13.23;;;2.40;;
73919;SDS011;62266;53.348;-1.496;2023-05-29T19:45:36;10.18;;;2.65;;
73919;SDS011;62266;53.348;-1.496;2023-05-29T19:48:20;8.95;;;2.40;;
73919;SDS011;62266;53.348;-1.496;2023-05-29T19:51:05;10.53;;;2.73;;
73919;SDS011;62266;53.348;-1.496;2023-05-29T19:53:50;9.77;;;2.40;;
73919;SDS011;62266;53.348;-1.496;2023-05-29T19:56:35;9.57;;;2.80;;
73919;SDS011;62266;53.348;-1.496;2023-05-29T19:59:19;10.20;;;3.17;;
73919;SDS011;62266;53.348;-1.496;2023-05-29T20:02:04;10.18;;;3.17;;
73919;SDS011;62266;53.348;-1.496;2023-05-29T20:04:50;12.70;;;2.97;;
73919;SDS011;62266;53.348;-1.496;2023-05-29T20:07:34;9.18;;;2.28;;
73919;SDS011;62266;53.348;-1.496;2023-05-29T20:10:21;6.82;;;2.20;;
73919;SDS011;62266;53.348;-1.496;2023-05-29T20:13:06;11.07;;;2.75;;
73919;SDS011;62266;53.348;-1.496;2023-05-29T20:15:54;7.85;;;2.47;;
73919;SDS011;62266;53.348;-1.496;2023-05-29T20:18:39;10.87;;;3.10;;
73919;SDS011;62266;53.348;-1.496;2023-05-29T20:21:23;9.70;;;2.35;;
73919;SDS011;62266;53.348;-1.496;2023-05-29T20:24:09;8.52;;;3.00;;
73919;SDS011;62266;53.348;-1.496;2023-05-29T20:26:56;11.20;;;3.13;;
73919;SDS011;62266;53.348;-1.496;2023-05-29T20:29:40;12.20;;;4.80;;
73919;SDS011;62266;53.348;-1.496;2023-05-29T20:32:27;16.07;;;4.43;;
73919;SDS011;62266;53.348;-1.496;2023-05-29T20:35:11;13.70;;;5.50;;
73919;SDS011;62266;53.348;-1.496;2023-05-29T20:38:00;18.25;;;4.47;;
73919;SDS011;62266;53.348;-1.496;2023-05-29T20:40:45;18.33;;;7.45;;
73919;SDS011;62266;53.348;-1.496;2023-05-29T20:43:31;12.98;;;3.83;;
73919;SDS011;62266;53.348;-1.496;2023-05-29T20:46:19;11.80;;;3.17;;
73919;SDS011;62266;53.348;-1.496;2023-05-29T20:49:03;14.35;;;3.33;;
73919;SDS011;62266;53.348;-1.496;2023-05-29T20:51:48;11.50;;;3.03;;
73919;SDS011;62266;53.348;-1.496;2023-05-29T20:54:32;15.02;;;3.03;;
73919;SDS011;62266;53.348;-1.496;2023-05-29T20:57:16;11.70;;;3.30;;
73919;SDS011;62266;53.348;-1.496;2023-05-29T21:00:00;13.47;;;3.63;;
73919;SDS011;62266;53.348;-1.496;2023-05-29T21:02:44;14.90;;;3.97;;
73919;SDS011;62266;53.348;-1.496;2023-05-29T21:05:29;15.50;;;4.03;;
73919;SDS011;62266;53.348;-1.496;2023-05-29T21:08:13;11.43;;;3.92;;
73919;SDS011;62266;53.348;-1.496;2023-05-29T21:10:58;12.68;;;3.58;;
73919;SDS011;62266;53.348;-1.496;2023-05-29T21:13:43;11.67;;;3.80;;
73919;SDS011;62266;53.348;-1.496;2023-05-29T21:16:27;12.63;;;3.80;;
73919;SDS011;62266;53.348;-1.496;2023-05-29T21:19:11;13.82;;;3.72;;
73919;SDS011;62266;53.348;-1.496;2023-05-29T21:21:58;13.00;;;3.63;;
73919;SDS011;62266;53.348;-1.496;2023-05-29T21:24:43;11.70;;;3.90;;
73919;SDS011;62266;53.348;-1.496;2023-05-29T21:27:27;12.87;;;3.60;;
73919;SDS011;62266;53.348;-1.496;2023-05-29T21:30:12;10.88;;;3.70;;
73919;SDS011;62266;53.348;-1.496;2023-05-29T21:32:56;13.43;;;3.78;;
73919;SDS011;62266;53.348;-1.496;2023-05-29T21:35:40;13.27;;;3.95;;
73919;SDS011;62266;53.348;-1.496;2023-05-29T21:38:26;10.57;;;3.75;;
73919;SDS011;62266;53.348;-1.496;2023-05-29T21:41:10;11.33;;;3.27;;
73919;SDS011;62266;53.348;-1.496;2023-05-29T21:44:03;13.40;;;4.38;;
73919;SDS011;62266;53.348;-1.496;2023-05-29T21:46:47;14.80;;;4.40;;
73919;SDS011;62266;53.348;-1.496;2023-05-29T21:49:35;14.00;;;3.83;;
73919;SDS011;62266;53.348;-1.496;2023-05-29T21:52:19;12.55;;;3.75;;
73919;SDS011;62266;53.348;-1.496;2023-05-29T21:55:04;14.70;;;3.90;;
73919;SDS011;62266;53.348;-1.496;2023-05-29T21:57:48;13.05;;;4.90;;
73919;SDS011;62266;53.348;-1.496;2023-05-29T22:00:32;15.57;;;4.03;;
73919;SDS011;62266;53.348;-1.496;2023-05-29T22:03:22;11.32;;;4.10;;
73919;SDS011;62266;53.348;-1.496;2023-05-29T22:06:06;14.00;;;4.38;;
73919;SDS011;62266;53.348;-1.496;2023-05-29T22:08:51;15.83;;;3.67;;
73919;SDS011;62266;53.348;-1.496;2023-05-29T22:11:35;13.15;;;4.13;;
73919;SDS011;62266;53.348;-1.496;2023-05-29T22:14:22;13.35;;;3.92;;
73919;SDS011;62266;53.348;-1.496;2023-05-29T22:17:09;10.95;;;4.25;;
73919;SDS011;62266;53.348;-1.496;2023-05-29T22:19:53;14.35;;;4.28;;
73919;SDS011;62266;53.348;-1.496;2023-05-29T22:22:38;14.77;;;4.40;;
73919;SDS011;62266;53.348;-1.496;2023-05-29T22:25:23;11.07;;;3.97;;
73919;SDS011;62266;53.348;-1.496;2023-05-29T22:28:08;15.93;;;4.43;;
73919;SDS011;62266;53.348;-1.496;2023-05-29T22:30:55;16.67;;;4.28;;
73919;SDS011;62266;53.348;-1.496;2023-05-29T22:33:40;11.75;;;3.85;;
73919;SDS011;62266;53.348;-1.496;2023-05-29T22:36:25;16.50;;;4.50;;
73919;SDS011;62266;53.348;-1.496;2023-05-29T22:39:10;16.10;;;4.28;;
73919;SDS011;62266;53.348;-1.496;2023-05-29T22:41:54;11.50;;;4.15;;
73919;SDS011;62266;53.348;-1.496;2023-05-29T22:44:40;15.98;;;3.88;;
73919;SDS011;62266;53.348;-1.496;2023-05-29T22:47:25;12.95;;;5.30;;
73919;SDS011;62266;53.348;-1.496;2023-05-29T22:50:12;15.07;;;4.60;;
73919;SDS011;62266;53.348;-1.496;2023-05-29T22:52:57;14.32;;;4.30;;
73919;SDS011;62266;53.348;-1.496;2023-05-29T22:55:41;13.50;;;4.75;;
73919;SDS011;62266;53.348;-1.496;2023-05-29T22:58:31;9.77;;;4.03;;
73919;SDS011;62266;53.348;-1.496;2023-05-29T23:01:15;11.43;;;4.38;;
73919;SDS011;62266;53.348;-1.496;2023-05-29T23:03:59;13.67;;;4.00;;
73919;SDS011;62266;53.348;-1.496;2023-05-29T23:06:43;12.82;;;4.32;;
73919;SDS011;62266;53.348;-1.496;2023-05-29T23:09:28;12.85;;;4.15;;
73919;SDS011;62266;53.348;-1.496;2023-05-29T23:12:12;16.55;;;4.78;;
73919;SDS011;62266;53.348;-1.496;2023-05-29T23:14:56;17.02;;;5.18;;
73919;SDS011;62266;53.348;-1.496;2023-05-29T23:17:40;22.07;;;5.77;;
73919;SDS011;62266;53.348;-1.496;2023-05-29T23:20:25;22.15;;;5.70;;
73919;SDS011;62266;53.348;-1.496;2023-05-29T23:23:09;15.60;;;4.88;;
73919;SDS011;62266;53.348;-1.496;2023-05-29T23:25:55;16.67;;;5.43;;
73919;SDS011;62266;53.348;-1.496;2023-05-29T23:28:39;15.50;;;5.65;;
73919;SDS011;62266;53.348;-1.496;2023-05-29T23:31:23;23.07;;;5.87;;
73919;SDS011;62266;53.348;-1.496;2023-05-29T23:34:08;18.38;;;5.10;;
73919;SDS011;62266;53.348;-1.496;2023-05-29T23:36:53;22.23;;;5.50;;
73919;SDS011;62266;53.348;-1.496;2023-05-29T23:39:41;12.98;;;5.05;;
73919;SDS011;62266;53.348;-1.496;2023-05-29T23:42:28;16.73;;;5.10;;
73919;SDS011;62266;53.348;-1.496;2023-05-29T23:45:12;17.60;;;4.80;;
73919;SDS011;62266;53.348;-1.496;2023-05-29T23:47:57;17.10;;;4.57;;
73919;SDS011;62266;53.348;-1.496;2023-05-29T23:50:41;17.80;;;5.28;;
73919;SDS011;62266;53.348;-1.496;2023-05-29T23:53:28;17.42;;;5.20;;
73919;SDS011;62266;53.348;-1.496;2023-05-29T23:56:15;16.10;;;5.10;;
73919;SDS011;62266;53.348;-1.496;2023-05-29T23:58:59;16.17;;;5.13;;
